createdAt,value
2022-09-05T00:02:13.024Z,1.67
2022-09-05T00:07:34.351Z,1.60
2022-09-05T00:12:42.756Z,1.50
2022-09-05T00:19:30.504Z,1.70
2022-09-05T00:24:34.403Z,1.60
2022-09-05T00:28:57.517Z,1.77
2022-09-05T00:34:20.267Z,1.67
2022-09-05T00:39:32.388Z,2.00
2022-09-05T00:44:36.557Z,1.80
2022-09-05T00:49:43.820Z,1.87
2022-09-05T00:55:14.083Z,1.87
2022-09-05T01:00:21.420Z,1.70
2022-09-05T01:05:29.119Z,2.10
2022-09-05T01:10:46.915Z,1.80
2022-09-05T01:16:00.966Z,1.77
2022-09-05T01:21:35.755Z,1.80
2022-09-05T01:26:57.866Z,1.70
2022-09-05T01:32:22.606Z,1.83
2022-09-05T01:38:10.118Z,1.50
2022-09-05T01:43:32.000Z,1.70
2022-09-05T01:49:24.568Z,1.60
2022-09-05T01:54:33.447Z,1.80
2022-09-05T01:59:46.238Z,1.63
2022-09-05T02:05:14.644Z,1.40
2022-09-05T02:10:58.122Z,1.80
2022-09-05T02:16:10.501Z,1.53
2022-09-05T02:21:21.529Z,1.90
2022-09-05T02:26:34.894Z,1.60
2022-09-05T02:31:39.281Z,2.10
2022-09-05T02:36:52.813Z,1.87
2022-09-05T02:45:20.340Z,1.97
2022-09-05T02:48:06.962Z,2.07
2022-09-05T02:57:32.849Z,1.93
2022-09-05T02:59:09.727Z,1.97
2022-09-05T03:04:35.705Z,1.77
2022-09-05T03:09:59.159Z,1.83
2022-09-05T03:15:18.612Z,1.90
2022-09-05T03:20:51.356Z,2.10
2022-09-05T03:26:09.131Z,2.10
2022-09-05T03:31:35.544Z,1.87
2022-09-05T03:37:07.056Z,2.20
2022-09-05T03:42:41.840Z,2.30
2022-09-05T03:47:58.551Z,2.10
2022-09-05T03:57:15.050Z,2.20
2022-09-05T03:59:06.089Z,2.20
2022-09-05T04:08:14.680Z,1.93
2022-09-05T04:10:04.458Z,2.40
2022-09-05T04:15:26.507Z,2.00
2022-09-05T04:20:49.717Z,2.50
2022-09-05T04:25:58.505Z,2.10
2022-09-05T04:31:41.502Z,2.60
2022-09-05T04:36:44.066Z,2.33
2022-09-05T04:42:21.194Z,2.30
2022-09-05T04:47:44.112Z,2.40
2022-09-05T04:52:59.581Z,2.40
2022-09-05T04:58:10.242Z,2.50
2022-09-05T05:06:18.517Z,2.30
2022-09-05T05:09:01.892Z,2.92
2022-09-05T05:18:10.720Z,2.60
2022-09-05T05:19:40.443Z,2.77
2022-09-05T05:24:52.018Z,2.60
2022-09-05T05:30:06.531Z,2.90
2022-09-05T05:35:16.222Z,2.50
2022-09-05T05:40:17.655Z,2.60
2022-09-05T05:45:25.559Z,2.87
2022-09-05T05:50:52.609Z,3.17
2022-09-05T05:56:02.881Z,3.10
2022-09-05T06:01:37.289Z,3.10
2022-09-05T06:07:09.974Z,2.93
2022-09-05T06:15:00.801Z,2.50
2022-09-05T06:18:18.894Z,2.57
2022-09-05T06:23:33.463Z,2.10
2022-09-05T06:29:20.681Z,1.75
2022-09-05T06:34:40.937Z,1.92
2022-09-05T06:39:52.451Z,2.08
2022-09-05T06:45:27.163Z,2.00
2022-09-05T06:51:08.420Z,1.85
2022-09-05T06:56:41.609Z,1.92
2022-09-05T07:02:01.229Z,1.60
2022-09-05T07:07:22.982Z,1.60
2022-09-05T07:12:47.397Z,1.63
2022-09-05T07:18:16.294Z,1.63
2022-09-05T07:24:09.458Z,1.35
2022-09-05T07:29:07.324Z,1.33
2022-09-05T07:34:20.916Z,1.40
2022-09-05T07:39:29.085Z,1.33
2022-09-05T07:44:34.598Z,1.95
2022-09-05T07:49:42.310Z,1.50
2022-09-05T07:57:09.201Z,1.50
2022-09-05T08:00:27.117Z,1.27
2022-09-05T08:05:39.169Z,1.48
2022-09-05T08:11:23.542Z,1.50
2022-09-05T08:16:26.593Z,1.35
2022-09-05T08:21:41.942Z,1.40
2022-09-05T08:26:47.418Z,1.27
2022-09-05T08:31:53.780Z,1.30
2022-09-05T08:36:56.179Z,1.30
2022-09-05T08:42:07.359Z,1.30
2022-09-05T08:47:45.754Z,1.30
2022-09-05T08:52:56.614Z,1.17
2022-09-05T08:58:27.001Z,1.35
2022-09-05T09:04:03.658Z,1.30
2022-09-05T09:09:41.479Z,1.35
2022-09-05T09:14:57.520Z,1.05
2022-09-05T09:20:20.903Z,1.30
2022-09-05T09:25:27.079Z,1.02
2022-09-05T09:30:30.906Z,1.20
2022-09-05T09:35:54.272Z,1.20
2022-09-05T09:41:16.966Z,1.80
2022-09-05T09:46:46.382Z,0.90
2022-09-05T09:52:02.894Z,1.27
2022-09-05T09:57:19.460Z,1.30
2022-09-05T10:04:31.191Z,1.20
2022-09-05T10:10:55.368Z,1.30
2022-09-05T10:14:49.741Z,1.30
2022-09-05T10:20:24.037Z,1.13
2022-09-05T10:25:48.068Z,1.40
2022-09-05T10:32:17.958Z,1.30
2022-09-05T10:36:27.033Z,1.30
2022-09-05T10:41:52.447Z,1.08
2022-09-05T10:47:06.146Z,1.10
2022-09-05T10:52:18.841Z,1.30
2022-09-05T10:57:27.163Z,0.90
2022-09-05T11:02:39.638Z,0.95
2022-09-05T11:08:05.486Z,0.90
2022-09-05T11:13:18.059Z,1.15
2022-09-05T11:18:54.652Z,1.15
2022-09-05T11:24:14.910Z,1.10
2022-09-05T11:29:22.239Z,1.00
2022-09-05T11:39:48.171Z,1.23
2022-09-05T11:40:58.027Z,0.90
2022-09-05T11:46:20.709Z,0.60
2022-09-05T11:51:33.549Z,1.02
2022-09-05T11:57:33.736Z,0.80
2022-09-05T12:02:57.689Z,0.95
2022-09-05T12:08:28.711Z,1.02
2022-09-05T12:13:39.013Z,0.95
2022-09-05T12:18:43.403Z,1.20
2022-09-05T12:25:16.977Z,0.95
2022-09-05T12:29:51.158Z,1.30
2022-09-05T12:36:03.746Z,1.23
2022-09-05T12:41:38.397Z,1.20
2022-09-05T12:46:07.018Z,0.88
2022-09-05T12:51:45.959Z,1.17
2022-09-05T13:00:08.515Z,1.10
2022-09-05T13:03:13.004Z,0.80
2022-09-05T13:07:49.242Z,0.80
2022-09-05T13:14:57.186Z,0.80
2022-09-05T13:18:21.158Z,0.90
2022-09-05T13:23:28.465Z,1.08
2022-09-05T13:29:10.096Z,0.93
2022-09-05T13:38:20.929Z,1.00
2022-09-05T13:39:51.829Z,1.20
2022-09-05T13:44:57.839Z,0.93
2022-09-05T13:50:22.398Z,1.00
2022-09-05T13:55:29.727Z,0.88
2022-09-05T14:00:38.135Z,0.90
2022-09-05T14:06:13.383Z,1.45
2022-09-05T14:11:45.629Z,1.02
2022-09-05T14:16:54.739Z,1.00
2022-09-05T14:21:56.539Z,1.00
2022-09-05T14:27:02.908Z,1.05
2022-09-05T14:37:44.561Z,1.13
2022-09-05T14:37:45.497Z,0.90
2022-09-05T14:43:07.350Z,1.08
2022-09-05T14:48:31.601Z,1.00
2022-09-05T15:02:54.608Z,1.10
2022-09-05T15:04:55.128Z,1.00
2022-09-05T15:12:14.877Z,1.10
2022-09-05T15:15:45.102Z,0.95
2022-09-05T15:21:33.708Z,1.02
2022-09-05T15:26:47.891Z,1.05
2022-09-05T15:31:59.503Z,0.90
2022-09-05T15:37:37.667Z,1.17
2022-09-05T15:42:47.737Z,1.00
2022-09-05T15:48:08.203Z,0.75
2022-09-05T15:53:13.698Z,0.73
2022-09-05T15:58:17.274Z,0.65
2022-09-05T16:08:21.738Z,0.98
2022-09-05T16:10:36.344Z,0.77
2022-09-05T16:14:36.535Z,0.90
2022-09-05T16:23:31.627Z,0.90
2022-09-05T16:25:09.658Z,0.88
2022-09-05T16:30:15.801Z,0.70
2022-09-05T16:35:18.149Z,0.90
2022-09-05T16:40:31.541Z,0.88
2022-09-05T16:45:43.117Z,1.00
2022-09-05T16:50:53.786Z,0.82
2022-09-05T16:55:57.850Z,1.10
2022-09-05T17:01:24.204Z,1.00
2022-09-05T17:06:52.791Z,0.80
2022-09-05T17:12:01.635Z,0.90
2022-09-05T17:17:55.263Z,1.20
2022-09-05T17:24:56.764Z,1.00
2022-09-05T17:29:27.753Z,1.00
2022-09-05T17:33:29.660Z,1.30
2022-09-05T17:39:10.259Z,1.92
2022-09-05T17:44:31.882Z,2.35
2022-09-05T17:49:45.190Z,2.17
2022-09-05T17:54:50.946Z,1.77
2022-09-05T17:59:56.397Z,1.88
2022-09-05T18:04:58.375Z,3.53
2022-09-05T18:10:14.924Z,3.53
2022-09-05T18:15:40.578Z,2.17
2022-09-05T18:21:22.390Z,1.65
2022-09-05T18:26:26.606Z,1.50
2022-09-05T18:31:41.955Z,1.40
2022-09-05T18:36:45.639Z,1.50
2022-09-05T18:41:56.109Z,1.35
2022-09-05T18:47:12.334Z,1.27
2022-09-05T18:52:35.545Z,1.35
2022-09-05T18:57:38.416Z,1.60
2022-09-05T19:02:51.495Z,1.50
2022-09-05T19:08:03.733Z,1.30
2022-09-05T19:13:13.506Z,1.40
2022-09-05T19:18:27.006Z,1.50
2022-09-05T19:23:35.898Z,1.30
2022-09-05T19:36:55.465Z,1.25
2022-09-05T19:36:57.235Z,1.45
2022-09-05T19:46:15.445Z,1.50
2022-09-05T19:47:39.631Z,2.03
2022-09-05T19:50:28.525Z,1.50
2022-09-05T19:55:35.470Z,1.40
2022-09-05T20:00:40.237Z,1.50
2022-09-05T20:05:41.911Z,1.30
2022-09-05T20:10:43.477Z,1.30
2022-09-05T20:15:45.170Z,1.30
2022-09-05T20:21:14.457Z,1.33
2022-09-05T20:26:18.538Z,1.00
2022-09-05T20:31:27.098Z,1.50
2022-09-05T20:42:24.829Z,1.20
2022-09-05T20:43:23.026Z,1.55
2022-09-05T20:51:26.337Z,1.58
2022-09-05T20:54:19.906Z,1.60
2022-09-05T20:58:14.621Z,1.55
2022-09-05T21:03:31.391Z,1.27
2022-09-05T21:08:34.801Z,1.60
2022-09-05T21:13:52.113Z,1.50
2022-09-05T21:18:54.343Z,1.50
2022-09-05T21:24:23.163Z,1.33
2022-09-05T21:29:32.624Z,1.35
2022-09-05T21:34:44.919Z,1.40
2022-09-05T21:40:00.170Z,1.53
2022-09-05T21:47:46.311Z,1.47
2022-09-05T21:50:31.273Z,1.40
2022-09-05T21:59:30.182Z,1.27
2022-09-05T22:00:56.619Z,1.50
2022-09-05T22:06:02.537Z,1.43
2022-09-05T22:11:10.263Z,1.40
2022-09-05T22:16:13.951Z,1.40
2022-09-05T22:21:32.853Z,1.57
2022-09-05T22:26:43.178Z,1.50
2022-09-05T22:32:00.035Z,1.37
2022-09-05T22:37:01.542Z,1.40
2022-09-05T22:42:03.944Z,0.97
2022-09-05T22:47:12.427Z,1.13
2022-09-05T22:52:13.909Z,1.30
2022-09-05T22:57:15.380Z,1.20
2022-09-05T23:02:16.925Z,1.30
2022-09-05T23:07:20.670Z,1.20
2022-09-05T23:12:22.255Z,1.10
2022-09-05T23:17:23.879Z,1.37
2022-09-05T23:22:25.415Z,1.07
2022-09-05T23:27:26.944Z,1.30
2022-09-05T23:32:28.559Z,1.30
2022-09-05T23:37:30.163Z,1.40
2022-09-05T23:42:31.637Z,1.20
2022-09-05T23:47:35.425Z,1.47
2022-09-05T23:52:40.538Z,1.30
2022-09-05T23:57:42.217Z,1.60
